LiveATC.Net - Listen to live air traffic control over the Internet! Contact LiveATC.net for advertising information


ICAO: SBBI  IATA: BFH   Airport: Bacacheri Airport
City: Curitiba
Country: Brazil   Continent: South America
SBBI METAR Weather: SBBI 201200Z 34008KT 9999 FEW010 23/18 Q1014
SBBI Flight Activity (FlightAware)
SBBI Gnd/Twr/App
Feed Status: DOWN
Last heard on: 2014-04-17 00:30:03 (247 days 12 hours 29 minutes ago)
SBBI Gnd/Twr/App Audio Archives
FacilityFrequency
Bacacheri Ground121.900
Bacacheri Tower118.900
Curitiba Approach119.950

TMA Curitiba Blog

NOTICE

Unauthorized use prohibited. See LiveATC.net Terms of Service


Find LiveATC Audio Streams


Airport/ARTCC Code

Frequency
(e.g., 124.400, 128.75)
Site-wide search

Browse LiveATC Feeds
LiveATC Coverage Map
Top 50 LiveATC Feeds
Bad Weather Areas

LiveATC FAQ
Offer a LiveATC Feed
Contact LiveATC.net
Press Inquiries

LiveATC on iPhone
LiveATC on Android

LiveATC Mobile
(Mobile browser)

ATC Audio Archives
Interesting Recordings

LiveATC Forums


Home Page
About LiveATC.net
Make a Donation
LiveATC Bookstore

Terms of Use
Privacy Policy

ATC/Radar Sites
U.S. ARTCC Freqs
Canadian Air Freqs

AIRMETs/SIGMETs

FAA Airport Status
Nat'l Airspace Status
Arrival Demand Charts


Server Software By:
Icecast.org
Liquidsoap

Please make a donation to help us keep growing!